createdAt,value
2018-09-02T00:48:06.941Z,99.90
2018-09-02T00:50:42.619Z,99.90
2018-09-02T00:53:22.491Z,99.90
2018-09-02T00:55:59.960Z,99.90
2018-09-02T00:58:33.992Z,99.90
2018-09-02T01:01:06.430Z,99.90
2018-09-02T01:03:40.177Z,99.90
2018-09-02T01:06:28.598Z,99.90
2018-09-02T01:09:02.907Z,99.90
2018-09-02T01:11:36.184Z,99.90
2018-09-02T01:21:22.846Z,99.90
2018-09-02T01:23:57.385Z,99.90
2018-09-02T01:26:34.005Z,99.90
2018-09-02T01:29:11.610Z,99.90
2018-09-02T01:31:48.469Z,99.90
2018-09-02T01:34:20.436Z,99.90
2018-09-02T01:37:09.262Z,99.90
2018-09-02T01:42:55.949Z,99.90
2018-09-02T01:45:29.385Z,99.90
2018-09-02T01:48:01.527Z,99.90
2018-09-02T01:50:32.421Z,99.90
2018-09-02T01:53:11.362Z,99.90
2018-09-02T01:55:47.153Z,99.90
2018-09-02T02:04:20.567Z,99.90
2018-09-02T02:06:54.367Z,99.90
2018-09-02T02:09:32.080Z,99.90
2018-09-02T02:23:12.099Z,99.90
2018-09-02T02:25:45.548Z,99.90
2018-09-02T02:28:18.741Z,99.90
2018-09-02T02:30:49.874Z,99.90
2018-09-02T02:33:23.573Z,99.90
2018-09-02T02:38:32.384Z,99.90
2018-09-02T02:41:03.461Z,99.90
2018-09-02T02:43:35.733Z,99.90
2018-09-02T02:46:09.796Z,99.90
2018-09-02T02:48:43.156Z,99.90
2018-09-02T02:51:16.033Z,99.90
2018-09-02T02:53:49.614Z,99.90
2018-09-02T02:56:21.946Z,99.90
2018-09-02T02:58:55.731Z,99.90
2018-09-02T03:01:27.894Z,99.90
2018-09-02T03:04:03.499Z,99.90
2018-09-02T03:06:39.035Z,99.90
2018-09-02T03:09:12.884Z,99.90
2018-09-02T03:11:47.388Z,99.90
2018-09-02T03:14:19.691Z,99.90
2018-09-02T03:16:50.760Z,99.90
2018-09-02T03:19:22.735Z,99.90
2018-09-02T03:21:57.462Z,99.90
2018-09-02T03:24:34.561Z,99.90
2018-09-02T03:27:08.285Z,99.90
2018-09-02T03:29:39.755Z,99.90
2018-09-02T03:32:13.180Z,99.90
2018-09-02T03:34:45.205Z,99.90
2018-09-02T03:37:17.759Z,99.90
2018-09-02T03:39:52.569Z,99.90
2018-09-02T03:42:28.137Z,99.90
2018-09-02T03:45:12.606Z,99.90
2018-09-02T03:47:45.366Z,99.90
2018-09-02T03:50:22.373Z,99.90
2018-09-02T03:52:55.904Z,99.90
2018-09-02T03:55:31.057Z,99.90
2018-09-02T03:58:05.560Z,99.90
2018-09-02T04:00:40.128Z,99.90
2018-09-02T04:15:37.408Z,99.90
2018-09-02T04:21:19.193Z,99.90
2018-09-02T04:23:56.878Z,99.90
2018-09-02T04:26:40.727Z,99.90
2018-09-02T04:29:20.063Z,99.90
2018-09-02T04:32:02.012Z,99.90
2018-09-02T04:34:44.096Z,99.90
2018-09-02T04:37:28.226Z,99.90
2018-09-02T04:56:00.576Z,99.90
2018-09-02T04:58:40.713Z,99.90
2018-09-02T05:04:15.443Z,99.90
2018-09-02T05:10:36.815Z,99.90
2018-09-02T05:31:58.075Z,99.90
2018-09-02T05:34:44.655Z,99.90
2018-09-02T06:04:48.163Z,99.90
2018-09-02T13:09:38.646Z,98.40
2018-09-02T15:47:29.277Z,93.10
2018-09-02T15:49:58.703Z,93.80
2018-09-02T15:52:29.373Z,94.00
2018-09-02T15:54:59.621Z,93.90
2018-09-02T15:57:30.199Z,93.60
2018-09-02T16:00:00.950Z,93.50
2018-09-02T16:02:32.919Z,92.80
2018-09-02T16:05:05.650Z,92.60
2018-09-02T16:07:49.295Z,93.00
2018-09-02T16:10:21.419Z,93.30
2018-09-02T16:12:52.731Z,93.50
2018-09-02T16:15:26.055Z,94.10
2018-09-02T16:17:59.587Z,94.20
2018-09-02T16:20:30.453Z,92.90
2018-09-02T16:23:03.774Z,93.10
2018-09-02T16:25:36.746Z,94.30
2018-09-02T16:28:11.166Z,93.80
2018-09-02T16:30:43.435Z,93.70
2018-09-02T16:33:17.829Z,93.70
2018-09-02T16:35:52.779Z,93.50
2018-09-02T16:38:27.544Z,93.20
2018-09-02T16:41:07.617Z,91.90
2018-09-02T16:43:40.524Z,90.80
2018-09-02T16:46:14.278Z,90.20
2018-09-02T16:49:03.590Z,90.30
2018-09-02T20:19:30.369Z,99.90
2018-09-02T20:43:29.430Z,99.90
2018-09-02T21:04:16.728Z,99.90
2018-09-02T21:29:49.753Z,99.90
2018-09-02T22:40:22.722Z,99.90
2018-09-02T22:43:01.770Z,99.90
2018-09-02T22:45:50.039Z,99.90
2018-09-02T22:48:31.221Z,99.90
2018-09-02T22:51:18.071Z,99.90
2018-09-02T22:54:05.320Z,99.90
2018-09-02T23:02:59.563Z,99.90
2018-09-02T23:05:34.569Z,99.90
2018-09-02T23:08:23.864Z,99.90
2018-09-02T23:11:23.072Z,99.90
2018-09-02T23:44:28.839Z,99.90
2018-09-02T23:47:02.195Z,99.90
2018-09-02T23:49:34.342Z,99.90
2018-09-02T23:52:10.856Z,99.90
2018-09-02T23:54:44.534Z,99.90
2018-09-02T23:57:18.583Z,99.90
2018-09-02T23:59:53.634Z,99.90
